createdAt,value
2018-03-22T00:01:32.835Z,7.60
2018-03-22T00:04:00.375Z,6.73
2018-03-22T00:06:28.718Z,6.60
2018-03-22T00:08:56.264Z,8.00
2018-03-22T00:11:23.928Z,7.30
2018-03-22T00:13:51.477Z,8.52
2018-03-22T00:16:19.031Z,8.13
2018-03-22T00:18:46.575Z,7.27
2018-03-22T00:21:14.134Z,7.67
2018-03-22T00:23:41.754Z,8.57
2018-03-22T00:26:09.343Z,7.78
2018-03-22T00:28:37.760Z,7.65
2018-03-22T00:31:05.308Z,7.40
2018-03-22T00:33:32.888Z,8.18
2018-03-22T00:36:00.435Z,8.35
2018-03-22T00:38:28.042Z,7.30
2018-03-22T00:40:55.582Z,7.40
2018-03-22T00:43:23.146Z,7.60
2018-03-22T00:45:50.678Z,7.05
2018-03-22T00:48:18.246Z,7.75
2018-03-22T00:50:45.815Z,7.87
2018-03-22T00:53:13.380Z,8.35
2018-03-22T00:55:40.930Z,8.53
2018-03-22T00:58:08.506Z,8.27
2018-03-22T01:00:36.048Z,8.20
2018-03-22T01:03:03.607Z,8.13
2018-03-22T01:05:31.144Z,7.32
2018-03-22T01:07:58.678Z,9.63
2018-03-22T01:10:27.010Z,8.87
2018-03-22T01:12:54.571Z,8.07
2018-03-22T01:15:22.139Z,8.88
2018-03-22T01:17:49.683Z,7.75
2018-03-22T01:20:17.255Z,9.03
2018-03-22T01:22:45.565Z,7.57
2018-03-22T01:25:13.909Z,8.55
2018-03-22T01:27:41.458Z,9.05
2018-03-22T01:30:20.998Z,7.93
2018-03-22T01:32:48.539Z,8.05
2018-03-22T01:35:16.111Z,11.80
2018-03-22T01:37:43.654Z,13.87
2018-03-22T01:40:11.230Z,11.02
2018-03-22T01:42:38.774Z,10.20
2018-03-22T01:45:06.340Z,10.48
2018-03-22T01:47:33.889Z,8.32
2018-03-22T01:50:01.450Z,10.00
2018-03-22T01:52:28.986Z,9.30
2018-03-22T01:54:57.323Z,9.55
2018-03-22T01:57:24.861Z,8.82
2018-03-22T01:59:52.406Z,9.40
2018-03-22T02:02:19.971Z,9.50
2018-03-22T02:04:47.514Z,9.40
2018-03-22T02:07:15.082Z,8.77
2018-03-22T02:09:42.619Z,10.27
2018-03-22T02:12:10.959Z,9.10
2018-03-22T02:14:38.509Z,10.45
2018-03-22T02:17:06.066Z,8.50
2018-03-22T02:19:33.613Z,9.98
2018-03-22T02:22:01.177Z,9.80
2018-03-22T02:24:28.720Z,10.53
2018-03-22T02:26:56.321Z,9.48
2018-03-22T02:29:23.858Z,9.13
2018-03-22T02:31:51.435Z,10.83
2018-03-22T02:34:18.978Z,9.90
2018-03-22T02:36:46.586Z,11.60
2018-03-22T02:39:15.193Z,9.80
2018-03-22T02:41:43.500Z,10.15
2018-03-22T02:44:11.067Z,9.88
2018-03-22T02:46:38.612Z,9.93
2018-03-22T02:49:06.672Z,9.73
2018-03-22T02:51:34.228Z,10.25
2018-03-22T02:54:01.822Z,10.27
2018-03-22T02:56:29.366Z,9.80
2018-03-22T02:58:56.933Z,10.40
2018-03-22T03:01:24.472Z,9.93
2018-03-22T03:03:52.048Z,10.10
2018-03-22T03:06:19.603Z,11.20
2018-03-22T03:08:47.178Z,10.10
2018-03-22T03:11:14.719Z,9.70
2018-03-22T03:13:42.295Z,9.98
2018-03-22T03:16:09.838Z,11.00
2018-03-22T03:18:37.405Z,9.82
2018-03-22T03:21:04.942Z,9.98
2018-03-22T03:23:32.492Z,10.55
2018-03-22T03:26:00.831Z,10.80
2018-03-22T03:28:28.368Z,9.90
2018-03-22T03:30:55.953Z,10.80
2018-03-22T03:33:23.496Z,11.30
2018-03-22T03:35:51.067Z,10.15
2018-03-22T03:38:18.627Z,11.48
2018-03-22T03:40:46.198Z,9.50
2018-03-22T03:43:13.746Z,10.40
2018-03-22T03:45:41.318Z,11.95
2018-03-22T03:48:08.859Z,11.60
2018-03-22T03:50:36.433Z,11.20
2018-03-22T03:53:03.979Z,13.40
2018-03-22T03:55:31.551Z,13.20
2018-03-22T03:57:59.090Z,12.07
2018-03-22T04:00:26.666Z,13.13
2018-03-22T04:02:54.217Z,11.70
2018-03-22T04:05:21.799Z,12.17
2018-03-22T04:07:49.342Z,12.90
2018-03-22T04:10:16.914Z,12.35
2018-03-22T04:12:44.466Z,11.10
2018-03-22T04:15:12.002Z,12.10
2018-03-22T04:17:39.564Z,11.00
2018-03-22T04:20:07.111Z,11.20
2018-03-22T04:22:34.685Z,10.98
2018-03-22T04:25:02.231Z,11.40
2018-03-22T04:27:29.808Z,11.15
2018-03-22T04:29:57.345Z,11.40
2018-03-22T04:32:24.909Z,11.27
2018-03-22T04:34:52.449Z,12.03
2018-03-22T04:37:20.775Z,12.30
2018-03-22T04:39:48.321Z,11.33
2018-03-22T04:42:15.888Z,10.83
2018-03-22T04:44:43.426Z,11.80
2018-03-22T04:47:10.986Z,11.60
2018-03-22T04:49:38.527Z,10.90
2018-03-22T04:52:06.861Z,10.70
2018-03-22T04:54:34.403Z,10.03
2018-03-22T04:57:01.971Z,11.75
2018-03-22T04:59:29.514Z,11.25
2018-03-22T05:01:57.082Z,12.03
2018-03-22T05:04:24.633Z,12.03
2018-03-22T05:06:52.260Z,12.32
2018-03-22T05:09:19.761Z,11.20
2018-03-22T05:11:47.334Z,11.37
2018-03-22T05:14:14.876Z,11.23
2018-03-22T05:16:42.429Z,11.90
2018-03-22T05:19:09.989Z,10.50
2018-03-22T05:21:37.515Z,10.80
2018-03-22T05:24:06.255Z,10.37
2018-03-22T05:26:34.615Z,11.53
2018-03-22T05:29:02.186Z,11.37
2018-03-22T05:31:29.740Z,13.10
2018-03-22T05:33:57.313Z,14.77
2018-03-22T05:36:24.851Z,16.43
2018-03-22T05:38:52.415Z,16.73
2018-03-22T05:41:19.964Z,18.65
2018-03-22T05:43:47.517Z,18.70
2018-03-22T05:46:15.543Z,19.20
2018-03-22T05:48:43.707Z,17.80
2018-03-22T05:51:11.270Z,18.43
2018-03-22T05:53:38.843Z,14.43
2018-03-22T05:56:06.378Z,15.10
2018-03-22T05:58:33.947Z,13.10
2018-03-22T06:01:01.489Z,14.40
2018-03-22T06:03:29.052Z,13.77
2018-03-22T06:05:57.049Z,14.93
2018-03-22T06:08:25.392Z,15.10
2018-03-22T06:10:53.475Z,16.73
2018-03-22T06:13:21.888Z,14.43
2018-03-22T06:15:49.972Z,14.30
2018-03-22T06:18:17.570Z,14.60
2018-03-22T06:20:45.134Z,13.85
2018-03-22T06:23:12.678Z,14.03
2018-03-22T06:25:40.255Z,13.40
2018-03-22T06:28:07.800Z,13.67
2018-03-22T06:30:35.362Z,13.60
2018-03-22T06:33:02.905Z,13.87
2018-03-22T06:56:34.618Z,13.95
2018-03-22T06:59:02.152Z,15.57
2018-03-22T07:01:30.490Z,12.30
2018-03-22T07:03:58.039Z,12.77
2018-03-22T07:06:25.596Z,13.03
2018-03-22T07:08:53.126Z,14.03
2018-03-22T07:11:20.690Z,13.30
2018-03-22T07:13:48.226Z,14.37
2018-03-22T07:16:15.786Z,12.90
2018-03-22T07:18:43.316Z,13.23
2018-03-22T07:21:11.644Z,13.60
2018-03-22T07:23:39.949Z,14.80
2018-03-22T07:26:07.502Z,14.33
2018-03-22T07:28:35.046Z,13.13
2018-03-22T07:31:02.590Z,14.07
2018-03-22T07:33:30.918Z,14.20
2018-03-22T07:35:58.450Z,13.33
2018-03-22T07:38:26.007Z,13.03
2018-03-22T07:40:53.536Z,14.93
2018-03-22T07:43:26.761Z,15.00
2018-03-22T07:45:54.291Z,13.77
2018-03-22T07:48:21.848Z,12.50
2018-03-22T07:50:49.384Z,14.57
2018-03-22T07:53:16.935Z,13.83
2018-03-22T07:55:44.468Z,13.23
2018-03-22T07:58:12.026Z,15.20
2018-03-22T08:00:39.586Z,14.20
2018-03-22T08:03:07.157Z,12.67
2018-03-22T08:05:34.696Z,13.50
2018-03-22T08:08:02.251Z,13.67
2018-03-22T08:10:29.787Z,15.80
2018-03-22T08:12:57.350Z,13.40
2018-03-22T08:15:25.679Z,14.33
2018-03-22T08:17:53.222Z,14.50
2018-03-22T08:20:20.796Z,18.00
2018-03-22T08:22:48.328Z,14.20
2018-03-22T08:25:15.886Z,15.70
2018-03-22T08:27:43.426Z,13.63
2018-03-22T08:30:11.750Z,14.50
2018-03-22T08:32:39.309Z,14.10
2018-03-22T08:35:06.920Z,15.70
2018-03-22T08:37:34.427Z,14.27
2018-03-22T08:40:01.990Z,14.23
2018-03-22T08:42:29.527Z,14.10
2018-03-22T08:44:57.081Z,14.97
2018-03-22T08:47:24.618Z,12.80
2018-03-22T08:49:52.175Z,14.10
2018-03-22T08:52:20.489Z,14.70
2018-03-22T08:54:48.070Z,12.80
2018-03-22T08:57:15.590Z,14.50
2018-03-22T08:59:43.930Z,13.10
2018-03-22T09:02:11.474Z,14.10
2018-03-22T09:04:39.040Z,14.00
2018-03-22T09:07:06.571Z,12.80
2018-03-22T09:09:34.098Z,13.40
2018-03-22T09:12:02.451Z,13.07
2018-03-22T09:14:29.994Z,13.93
2018-03-22T09:16:57.554Z,14.10
2018-03-22T09:19:25.092Z,15.50
2018-03-22T09:21:52.654Z,15.73
2018-03-22T09:24:20.187Z,15.00
2018-03-22T09:26:54.109Z,14.60
2018-03-22T09:29:21.638Z,14.80
2018-03-22T09:31:49.963Z,14.73
2018-03-22T09:34:17.500Z,16.00
2018-03-22T09:36:45.058Z,16.67
2018-03-22T09:39:12.595Z,16.20
2018-03-22T09:41:40.921Z,16.73
2018-03-22T09:44:08.460Z,16.10
2018-03-22T09:46:36.021Z,17.13
2018-03-22T09:49:03.558Z,14.93
2018-03-22T09:51:31.887Z,17.37
2018-03-22T09:53:59.421Z,17.93
2018-03-22T09:56:26.986Z,17.70
2018-03-22T09:58:54.518Z,18.80
2018-03-22T10:01:22.822Z,18.90
2018-03-22T10:03:50.399Z,17.40
2018-03-22T10:06:17.943Z,16.13
2018-03-22T10:08:45.508Z,16.60
2018-03-22T10:11:13.049Z,18.50
2018-03-22T10:13:40.616Z,17.53
2018-03-22T10:16:08.151Z,18.60
2018-03-22T10:18:36.474Z,20.60
2018-03-22T10:21:04.009Z,20.33
2018-03-22T10:23:31.582Z,20.47
2018-03-22T10:25:59.134Z,20.37
2018-03-22T10:28:26.697Z,22.63
2018-03-22T10:30:54.226Z,22.27
2018-03-22T10:33:22.564Z,21.47
2018-03-22T10:35:50.096Z,20.53
2018-03-22T10:38:17.673Z,18.87
2018-03-22T10:40:45.204Z,20.67
2018-03-22T10:43:12.771Z,18.30
2018-03-22T10:45:40.314Z,20.37
2018-03-22T10:48:08.642Z,18.97
2018-03-22T10:50:36.169Z,18.37
2018-03-22T10:53:03.703Z,18.00
2018-03-22T10:55:32.033Z,19.53
2018-03-22T10:57:59.564Z,18.10
2018-03-22T11:00:32.877Z,20.80
2018-03-22T11:03:06.174Z,20.63
2018-03-22T11:05:33.746Z,22.27
2018-03-22T11:08:01.270Z,22.90
2018-03-22T11:10:28.838Z,20.20
2018-03-22T11:12:56.385Z,20.43
2018-03-22T11:15:23.948Z,19.40
2018-03-22T11:17:51.476Z,19.50
2018-03-22T11:20:19.043Z,19.20
2018-03-22T11:22:47.354Z,18.53
2018-03-22T11:25:14.911Z,19.30
2018-03-22T11:27:42.434Z,17.70
2018-03-22T11:30:10.015Z,17.93
2018-03-22T11:32:37.550Z,19.60
2018-03-22T11:35:05.087Z,19.13
2018-03-22T11:37:32.647Z,19.00
2018-03-22T11:40:00.196Z,18.70
2018-03-22T11:42:27.768Z,18.70
2018-03-22T11:44:55.304Z,16.67
2018-03-22T11:47:22.855Z,17.50
2018-03-22T11:49:50.387Z,20.23
2018-03-22T11:52:18.722Z,18.67
2018-03-22T11:54:46.267Z,17.40
2018-03-22T11:57:13.822Z,15.90
2018-03-22T11:59:41.350Z,17.67
2018-03-22T12:02:08.923Z,17.87
2018-03-22T12:04:36.467Z,17.50
2018-03-22T12:07:04.030Z,16.83
2018-03-22T12:09:31.563Z,17.30
2018-03-22T12:11:59.114Z,17.70
2018-03-22T12:14:26.646Z,15.47
2018-03-22T12:16:54.196Z,17.70
2018-03-22T12:19:21.726Z,16.40
2018-03-22T12:21:49.279Z,16.40
2018-03-22T12:24:17.580Z,15.30
2018-03-22T12:26:45.137Z,14.07
2018-03-22T12:29:12.671Z,14.83
2018-03-22T12:31:40.998Z,15.47
2018-03-22T12:34:08.528Z,16.77
2018-03-22T12:36:36.086Z,16.00
2018-03-22T12:39:03.626Z,15.30
2018-03-22T12:41:31.954Z,15.97
2018-03-22T12:43:59.503Z,16.00
2018-03-22T12:46:27.070Z,16.47
2018-03-22T12:48:54.611Z,15.40
2018-03-22T12:51:22.138Z,17.00
2018-03-22T12:53:50.465Z,15.80
2018-03-22T12:56:17.999Z,16.03
2018-03-22T12:58:45.559Z,14.83
2018-03-22T13:01:13.094Z,15.50
2018-03-22T13:03:41.410Z,17.27
2018-03-22T13:06:08.947Z,16.23
2018-03-22T13:08:37.271Z,15.10
2018-03-22T13:11:04.831Z,17.50
2018-03-22T13:13:32.390Z,15.03
2018-03-22T13:15:59.922Z,17.53
2018-03-22T13:18:27.475Z,15.83
2018-03-22T13:20:55.007Z,16.63
2018-03-22T13:23:23.340Z,18.27
2018-03-22T13:25:50.880Z,17.40
2018-03-22T13:28:18.440Z,18.10
2018-03-22T13:30:45.975Z,16.03
2018-03-22T13:33:14.304Z,16.47
2018-03-22T13:35:41.842Z,18.40
2018-03-22T13:38:09.375Z,18.07
2018-03-22T13:40:36.929Z,18.33
2018-03-22T13:43:05.223Z,16.17
2018-03-22T13:45:32.789Z,15.73
2018-03-22T13:48:00.327Z,18.50
2018-03-22T13:50:27.882Z,16.87
2018-03-22T13:52:56.178Z,19.27
2018-03-22T13:55:23.735Z,18.37
2018-03-22T13:57:56.878Z,18.90
2018-03-22T14:00:24.453Z,17.90
2018-03-22T14:02:52.772Z,18.87
2018-03-22T14:05:20.373Z,21.00
2018-03-22T14:07:47.884Z,19.00
2018-03-22T14:10:15.454Z,17.83
2018-03-22T14:12:43.002Z,17.13
2018-03-22T14:15:10.585Z,17.10
2018-03-22T14:17:38.124Z,18.03
2018-03-22T14:20:05.705Z,17.40
2018-03-22T14:22:33.247Z,17.27
2018-03-22T14:25:00.785Z,17.10
2018-03-22T14:27:29.107Z,17.50
2018-03-22T14:29:56.686Z,15.93
2018-03-22T14:32:24.248Z,16.40
2018-03-22T14:34:51.815Z,15.47
2018-03-22T14:37:19.382Z,15.17
2018-03-22T14:39:46.927Z,15.23
2018-03-22T14:42:14.521Z,16.43
2018-03-22T14:44:42.838Z,14.07
2018-03-22T14:47:10.411Z,15.60
2018-03-22T14:49:38.719Z,17.07
2018-03-22T14:52:06.278Z,16.63
2018-03-22T14:54:33.830Z,16.07
2018-03-22T14:57:01.407Z,16.63
2018-03-22T14:59:29.715Z,16.90
2018-03-22T15:01:57.334Z,15.30
2018-03-22T15:04:24.884Z,14.30
2018-03-22T15:06:52.434Z,14.77
2018-03-22T15:09:19.984Z,15.30
2018-03-22T15:11:47.539Z,15.60
2018-03-22T15:14:15.106Z,15.10
2018-03-22T15:16:42.646Z,15.33
2018-03-22T15:19:10.225Z,14.43
2018-03-22T15:21:37.798Z,15.63
2018-03-22T15:24:05.383Z,16.40
2018-03-22T15:26:33.694Z,18.40
2018-03-22T15:29:01.251Z,17.03
2018-03-22T15:31:28.786Z,18.77
2018-03-22T15:33:57.122Z,17.47
2018-03-22T15:36:24.669Z,17.77
2018-03-22T15:38:52.230Z,18.00
2018-03-22T15:41:19.768Z,17.10
2018-03-22T15:43:47.335Z,16.60
2018-03-22T15:46:14.874Z,17.53
2018-03-22T15:48:43.204Z,15.53
2018-03-22T15:51:10.770Z,16.60
2018-03-22T15:53:38.330Z,16.73
2018-03-22T15:56:05.881Z,15.50
2018-03-22T15:58:33.455Z,16.50
2018-03-22T16:01:00.999Z,18.30
2018-03-22T16:03:29.315Z,17.60
2018-03-22T16:05:56.880Z,18.40
2018-03-22T16:08:25.184Z,16.53
2018-03-22T16:10:52.739Z,16.00
2018-03-22T16:13:20.276Z,17.03
2018-03-22T16:15:48.604Z,16.30
2018-03-22T16:18:16.139Z,15.60
2018-03-22T16:20:43.702Z,16.50
2018-03-22T16:23:11.231Z,16.07
2018-03-22T16:25:39.559Z,16.00
2018-03-22T16:28:07.113Z,16.00
2018-03-22T16:30:34.669Z,16.00
2018-03-22T16:33:02.198Z,16.47
2018-03-22T16:35:30.530Z,16.00
2018-03-22T16:37:58.071Z,15.80
2018-03-22T16:40:25.697Z,16.50
2018-03-22T16:42:53.278Z,18.47
2018-03-22T16:45:20.849Z,15.40
2018-03-22T16:47:48.394Z,16.73
2018-03-22T16:50:15.924Z,16.10
2018-03-22T16:52:44.253Z,15.50
2018-03-22T16:55:11.962Z,16.37
2018-03-22T16:57:40.307Z,17.37
2018-03-22T17:00:07.853Z,19.60
2018-03-22T17:02:35.418Z,19.47
2018-03-22T17:05:02.955Z,18.10
2018-03-22T17:07:30.507Z,15.97
2018-03-22T17:09:58.043Z,22.37
2018-03-22T17:12:26.375Z,25.70
2018-03-22T17:14:53.902Z,22.23
2018-03-22T17:17:21.462Z,17.07
2018-03-22T17:19:48.998Z,17.20
2018-03-22T17:22:17.342Z,20.20
2018-03-22T17:24:44.887Z,19.10
2018-03-22T17:27:12.419Z,18.03
2018-03-22T17:29:39.989Z,18.20
2018-03-22T17:32:07.543Z,17.90
2018-03-22T17:34:35.102Z,18.80
2018-03-22T17:37:02.635Z,17.60
2018-03-22T17:39:30.987Z,17.50
2018-03-22T17:41:58.516Z,17.40
2018-03-22T17:44:26.099Z,17.00
2018-03-22T17:46:53.627Z,20.10
2018-03-22T17:49:21.187Z,22.63
2018-03-22T17:51:48.744Z,18.83
2018-03-22T17:54:16.323Z,18.43
2018-03-22T17:56:43.862Z,19.07
2018-03-22T17:59:11.423Z,18.87
2018-03-22T18:01:38.964Z,18.33
2018-03-22T18:04:07.308Z,19.20
2018-03-22T18:06:34.847Z,19.20
2018-03-22T18:09:02.387Z,21.27
2018-03-22T18:11:29.951Z,19.20
2018-03-22T18:13:57.500Z,20.30
2018-03-22T18:16:25.063Z,23.97
2018-03-22T18:18:52.610Z,22.93
2018-03-22T18:21:20.171Z,22.73
2018-03-22T18:23:47.707Z,21.40
2018-03-22T18:26:16.031Z,22.40
2018-03-22T18:28:44.335Z,23.67
2018-03-22T18:31:11.891Z,22.17
2018-03-22T18:33:39.443Z,24.73
2018-03-22T18:36:07.014Z,24.47
2018-03-22T18:38:34.559Z,22.20
2018-03-22T18:41:02.124Z,21.57
2018-03-22T18:43:29.659Z,22.40
2018-03-22T18:45:57.215Z,21.00
2018-03-22T18:48:24.759Z,22.30
2018-03-22T18:50:52.294Z,21.00
2018-03-22T18:53:20.618Z,20.50
2018-03-22T18:55:48.162Z,22.10
2018-03-22T18:58:15.728Z,23.63
2018-03-22T19:00:43.265Z,21.40
2018-03-22T19:03:11.585Z,21.27
2018-03-22T19:05:39.122Z,20.53
2018-03-22T19:08:06.684Z,19.80
2018-03-22T19:10:34.220Z,21.00
2018-03-22T19:13:01.798Z,21.20
2018-03-22T19:15:29.335Z,21.17
2018-03-22T19:17:57.659Z,19.40
2018-03-22T19:20:25.190Z,21.40
2018-03-22T19:22:52.758Z,22.93
2018-03-22T19:25:20.292Z,24.00
2018-03-22T19:27:48.739Z,22.70
2018-03-22T19:30:16.283Z,24.47
2018-03-22T19:32:43.833Z,24.40
2018-03-22T19:35:11.364Z,23.00
2018-03-22T19:37:39.686Z,25.70
2018-03-22T19:40:07.988Z,24.00
2018-03-22T19:42:35.546Z,25.20
2018-03-22T19:45:03.082Z,25.43
2018-03-22T19:47:30.656Z,26.07
2018-03-22T19:49:58.184Z,24.83
2018-03-22T19:52:25.718Z,25.90
2018-03-22T19:54:53.277Z,24.73
2018-03-22T19:57:21.579Z,23.20
2018-03-22T19:59:49.133Z,25.70
2018-03-22T20:02:16.662Z,25.20
2018-03-22T20:04:44.986Z,27.30
2018-03-22T20:07:12.567Z,29.47
2018-03-22T20:09:40.125Z,28.70
2018-03-22T20:12:07.666Z,28.73
2018-03-22T20:14:35.223Z,26.13
2018-03-22T20:17:02.772Z,24.43
2018-03-22T20:19:30.340Z,22.60
2018-03-22T20:21:57.876Z,24.03
2018-03-22T20:24:25.426Z,26.03
2018-03-22T20:26:53.003Z,26.00
2018-03-22T20:29:20.566Z,25.40
2018-03-22T20:31:48.102Z,27.20
2018-03-22T20:34:16.422Z,29.03
2018-03-22T20:36:43.949Z,27.53
2018-03-22T20:39:11.511Z,28.00
2018-03-22T20:41:39.066Z,27.90
2018-03-22T20:44:06.631Z,27.30
2018-03-22T20:46:34.180Z,28.40
2018-03-22T20:49:02.511Z,26.40
2018-03-22T20:51:30.091Z,25.93
2018-03-22T20:53:57.642Z,26.63
2018-03-22T20:56:25.234Z,29.13
2018-03-22T20:58:53.587Z,29.73
2018-03-22T21:01:21.143Z,31.47
2018-03-22T21:03:48.696Z,29.10
2018-03-22T21:06:16.272Z,29.30
2018-03-22T21:08:43.860Z,31.17
2018-03-22T21:11:11.430Z,26.37
2018-03-22T21:13:38.984Z,30.23
2018-03-22T21:16:06.564Z,28.03
2018-03-22T21:18:34.111Z,30.37
2018-03-22T21:21:01.683Z,30.50
2018-03-22T21:23:29.216Z,32.07
2018-03-22T21:25:57.599Z,30.33
2018-03-22T21:28:25.112Z,27.77
2018-03-22T21:30:52.692Z,29.20
2018-03-22T21:33:20.226Z,30.40
2018-03-22T21:35:47.807Z,29.17
2018-03-22T21:38:15.342Z,28.80
2018-03-22T21:40:42.907Z,30.67
2018-03-22T21:43:10.536Z,29.73
2018-03-22T21:45:38.129Z,29.50
2018-03-22T21:48:05.670Z,29.47
2018-03-22T21:50:45.074Z,28.83
2018-03-22T21:53:13.426Z,32.73
2018-03-22T21:55:40.998Z,33.27
2018-03-22T21:58:08.533Z,30.60
2018-03-22T22:00:36.097Z,32.10
2018-03-22T22:03:03.630Z,29.07
2018-03-22T22:05:31.187Z,31.77
2018-03-22T22:07:58.732Z,28.40
2018-03-22T22:10:26.299Z,30.20
2018-03-22T22:12:53.865Z,28.47
2018-03-22T22:15:21.444Z,30.13
2018-03-22T22:17:48.994Z,30.20
2018-03-22T22:20:16.561Z,30.90
2018-03-22T22:22:44.871Z,28.20
2018-03-22T22:25:12.451Z,29.33
2018-03-22T22:27:40.750Z,28.40
2018-03-22T22:30:08.322Z,29.40
2018-03-22T22:32:35.858Z,28.17
2018-03-22T22:35:03.426Z,27.20
2018-03-22T22:37:31.021Z,28.33
2018-03-22T22:39:58.575Z,29.20
2018-03-22T22:42:26.102Z,30.67
2018-03-22T22:44:53.712Z,26.47
2018-03-22T22:47:21.251Z,27.80
2018-03-22T22:49:49.584Z,27.57
2018-03-22T22:52:17.877Z,29.40
2018-03-22T22:54:45.437Z,30.00
2018-03-22T22:57:12.984Z,28.90
2018-03-22T22:59:41.311Z,30.13
2018-03-22T23:02:08.854Z,28.80
2018-03-22T23:04:36.412Z,27.13
2018-03-22T23:07:03.944Z,26.87
2018-03-22T23:09:31.479Z,27.70
2018-03-22T23:11:59.042Z,28.33
2018-03-22T23:14:27.350Z,27.10
2018-03-22T23:16:54.910Z,27.23
2018-03-22T23:19:22.438Z,29.20
2018-03-22T23:21:50.000Z,29.20
2018-03-22T23:24:17.560Z,29.40
2018-03-22T23:26:45.124Z,30.57
2018-03-22T23:29:13.420Z,31.70
2018-03-22T23:31:40.992Z,36.10
2018-03-22T23:34:08.531Z,34.27
2018-03-22T23:36:36.863Z,39.27
2018-03-22T23:39:04.397Z,37.97
2018-03-22T23:41:31.957Z,37.93
2018-03-22T23:43:59.491Z,53.77
2018-03-22T23:46:27.820Z,42.00
2018-03-22T23:48:55.352Z,38.20
2018-03-22T23:51:22.918Z,36.40
2018-03-22T23:53:50.443Z,39.03
2018-03-22T23:56:18.771Z,36.60
2018-03-22T23:58:47.076Z,35.43
